sensor_id;sensor_type;location;lat;lon;timestamp;P1;durP1;ratioP1;P2;durP2;ratioP2
59659;SDS011;45534;52.690;6.268;2023-07-31T00:00:28;2.28;;;1.85;;
59659;SDS011;45534;52.690;6.268;2023-07-31T00:02:54;2.88;;;2.15;;
59659;SDS011;45534;52.690;6.268;2023-07-31T00:05:20;3.20;;;1.98;;
59659;SDS011;45534;52.690;6.268;2023-07-31T00:07:46;5.40;;;1.65;;
59659;SDS011;45534;52.690;6.268;2023-07-31T00:10:12;3.50;;;2.25;;
59659;SDS011;45534;52.690;6.268;2023-07-31T00:12:38;1.70;;;1.60;;
59659;SDS011;45534;52.690;6.268;2023-07-31T00:15:07;2.22;;;1.73;;
59659;SDS011;45534;52.690;6.268;2023-07-31T00:17:33;2.50;;;2.30;;
59659;SDS011;45534;52.690;6.268;2023-07-31T00:19:59;1.98;;;1.77;;
59659;SDS011;45534;52.690;6.268;2023-07-31T00:22:24;1.70;;;1.60;;
59659;SDS011;45534;52.690;6.268;2023-07-31T00:24:50;2.03;;;1.85;;
59659;SDS011;45534;52.690;6.268;2023-07-31T00:27:16;4.38;;;3.00;;
59659;SDS011;45534;52.690;6.268;2023-07-31T00:29:42;2.08;;;1.98;;
59659;SDS011;45534;52.690;6.268;2023-07-31T00:32:10;2.20;;;2.00;;
59659;SDS011;45534;52.690;6.268;2023-07-31T00:34:36;5.25;;;1.52;;
59659;SDS011;45534;52.690;6.268;2023-07-31T00:37:02;1.50;;;1.40;;
59659;SDS011;45534;52.690;6.268;2023-07-31T00:39:29;2.30;;;1.65;;
59659;SDS011;45534;52.690;6.268;2023-07-31T00:41:55;3.42;;;1.50;;
59659;SDS011;45534;52.690;6.268;2023-07-31T00:44:21;1.30;;;1.30;;
59659;SDS011;45534;52.690;6.268;2023-07-31T00:46:46;1.65;;;1.38;;
59659;SDS011;45534;52.690;6.268;2023-07-31T00:49:12;1.63;;;1.52;;
59659;SDS011;45534;52.690;6.268;2023-07-31T00:51:38;1.63;;;1.52;;
59659;SDS011;45534;52.690;6.268;2023-07-31T00:54:04;1.20;;;1.20;;
59659;SDS011;45534;52.690;6.268;2023-07-31T00:56:31;1.52;;;1.27;;
59659;SDS011;45534;52.690;6.268;2023-07-31T00:58:57;2.55;;;2.35;;
59659;SDS011;45534;52.690;6.268;2023-07-31T01:01:23;2.10;;;1.95;;
59659;SDS011;45534;52.690;6.268;2023-07-31T01:03:49;2.20;;;1.23;;
59659;SDS011;45534;52.690;6.268;2023-07-31T01:06:32;1.65;;;1.10;;
59659;SDS011;45534;52.690;6.268;2023-07-31T01:10:06;1.80;;;1.67;;
59659;SDS011;45534;52.690;6.268;2023-07-31T01:12:23;1.70;;;1.50;;
59659;SDS011;45534;52.690;6.268;2023-07-31T01:15:01;1.30;;;1.30;;
59659;SDS011;45534;52.690;6.268;2023-07-31T01:17:28;2.38;;;1.52;;
59659;SDS011;45534;52.690;6.268;2023-07-31T01:19:54;1.50;;;1.40;;
59659;SDS011;45534;52.690;6.268;2023-07-31T01:22:34;1.08;;;1.02;;
59659;SDS011;45534;52.690;6.268;2023-07-31T01:28:05;3.03;;;2.80;;
59659;SDS011;45534;52.690;6.268;2023-07-31T01:30:37;2.08;;;1.88;;
59659;SDS011;45534;52.690;6.268;2023-07-31T01:33:12;2.70;;;1.33;;
59659;SDS011;45534;52.690;6.268;2023-07-31T01:35:42;1.52;;;1.42;;
59659;SDS011;45534;52.690;6.268;2023-07-31T01:38:09;1.60;;;1.50;;
59659;SDS011;45534;52.690;6.268;2023-07-31T01:40:35;1.50;;;1.40;;
59659;SDS011;45534;52.690;6.268;2023-07-31T01:43:01;3.83;;;3.63;;
59659;SDS011;45534;52.690;6.268;2023-07-31T01:45:26;1.33;;;1.20;;
59659;SDS011;45534;52.690;6.268;2023-07-31T01:47:52;1.02;;;1.02;;
59659;SDS011;45534;52.690;6.268;2023-07-31T01:50:18;1.92;;;1.40;;
59659;SDS011;45534;52.690;6.268;2023-07-31T01:52:43;1.45;;;1.45;;
59659;SDS011;45534;52.690;6.268;2023-07-31T01:55:09;1.58;;;1.50;;
59659;SDS011;45534;52.690;6.268;2023-07-31T01:57:36;2.80;;;2.67;;
59659;SDS011;45534;52.690;6.268;2023-07-31T02:00:02;2.40;;;1.65;;
59659;SDS011;45534;52.690;6.268;2023-07-31T02:02:27;4.93;;;2.30;;
59659;SDS011;45534;52.690;6.268;2023-07-31T02:04:53;1.85;;;1.67;;
59659;SDS011;45534;52.690;6.268;2023-07-31T02:07:19;2.40;;;1.65;;
59659;SDS011;45534;52.690;6.268;2023-07-31T02:09:44;1.85;;;1.75;;
59659;SDS011;45534;52.690;6.268;2023-07-31T02:12:12;2.30;;;2.10;;
59659;SDS011;45534;52.690;6.268;2023-07-31T02:14:39;2.15;;;1.67;;
59659;SDS011;45534;52.690;6.268;2023-07-31T02:17:05;5.75;;;1.98;;
59659;SDS011;45534;52.690;6.268;2023-07-31T02:19:31;2.75;;;1.58;;
59659;SDS011;45534;52.690;6.268;2023-07-31T02:21:56;1.52;;;1.42;;
59659;SDS011;45534;52.690;6.268;2023-07-31T02:24:22;1.40;;;1.40;;
59659;SDS011;45534;52.690;6.268;2023-07-31T02:26:49;1.80;;;1.70;;
59659;SDS011;45534;52.690;6.268;2023-07-31T02:29:14;2.20;;;2.00;;
59659;SDS011;45534;52.690;6.268;2023-07-31T02:31:40;2.20;;;2.08;;
59659;SDS011;45534;52.690;6.268;2023-07-31T02:34:06;3.40;;;1.63;;
59659;SDS011;45534;52.690;6.268;2023-07-31T02:36:31;1.45;;;1.38;;
59659;SDS011;45534;52.690;6.268;2023-07-31T02:38:57;1.98;;;1.88;;
59659;SDS011;45534;52.690;6.268;2023-07-31T02:41:23;2.65;;;2.45;;
59659;SDS011;45534;52.690;6.268;2023-07-31T02:43:48;2.13;;;1.90;;
59659;SDS011;45534;52.690;6.268;2023-07-31T02:46:17;3.08;;;2.38;;
59659;SDS011;45534;52.690;6.268;2023-07-31T02:48:44;3.00;;;1.90;;
59659;SDS011;45534;52.690;6.268;2023-07-31T02:51:10;3.58;;;2.42;;
59659;SDS011;45534;52.690;6.268;2023-07-31T02:53:36;1.63;;;1.52;;
59659;SDS011;45534;52.690;6.268;2023-07-31T02:56:01;2.25;;;1.52;;
59659;SDS011;45534;52.690;6.268;2023-07-31T02:58:27;1.10;;;1.10;;
59659;SDS011;45534;52.690;6.268;2023-07-31T03:00:53;8.45;;;2.75;;
59659;SDS011;45534;52.690;6.268;2023-07-31T03:03:18;3.53;;;2.30;;
59659;SDS011;45534;52.690;6.268;2023-07-31T03:05:44;3.08;;;2.28;;
59659;SDS011;45534;52.690;6.268;2023-07-31T03:08:10;7.03;;;2.10;;
59659;SDS011;45534;52.690;6.268;2023-07-31T03:10:35;4.15;;;1.98;;
59659;SDS011;45534;52.690;6.268;2023-07-31T03:13:01;5.55;;;2.85;;
59659;SDS011;45534;52.690;6.268;2023-07-31T03:15:27;3.03;;;1.85;;
59659;SDS011;45534;52.690;6.268;2023-07-31T03:17:52;2.42;;;1.85;;
59659;SDS011;45534;52.690;6.268;2023-07-31T03:20:18;5.15;;;2.58;;
59659;SDS011;45534;52.690;6.268;2023-07-31T03:22:43;7.38;;;2.60;;
59659;SDS011;45534;52.690;6.268;2023-07-31T03:25:09;1.73;;;1.60;;
59659;SDS011;45534;52.690;6.268;2023-07-31T03:27:35;3.20;;;2.08;;
59659;SDS011;45534;52.690;6.268;2023-07-31T03:30:02;4.22;;;2.00;;
59659;SDS011;45534;52.690;6.268;2023-07-31T03:32:28;1.83;;;1.65;;
59659;SDS011;45534;52.690;6.268;2023-07-31T03:34:53;1.83;;;1.48;;
59659;SDS011;45534;52.690;6.268;2023-07-31T03:37:19;2.08;;;1.88;;
59659;SDS011;45534;52.690;6.268;2023-07-31T03:39:45;4.97;;;3.20;;
59659;SDS011;45534;52.690;6.268;2023-07-31T03:42:10;1.15;;;1.00;;
59659;SDS011;45534;52.690;6.268;2023-07-31T03:44:36;5.35;;;1.95;;
59659;SDS011;45534;52.690;6.268;2023-07-31T03:47:02;1.85;;;1.73;;
59659;SDS011;45534;52.690;6.268;2023-07-31T03:49:28;2.72;;;1.80;;
59659;SDS011;45534;52.690;6.268;2023-07-31T03:51:53;1.40;;;1.40;;
59659;SDS011;45534;52.690;6.268;2023-07-31T03:54:19;2.53;;;1.63;;
59659;SDS011;45534;52.690;6.268;2023-07-31T03:56:45;2.75;;;2.35;;
59659;SDS011;45534;52.690;6.268;2023-07-31T03:59:10;2.40;;;1.70;;
59659;SDS011;45534;52.690;6.268;2023-07-31T04:01:36;2.65;;;2.45;;
59659;SDS011;45534;52.690;6.268;2023-07-31T04:04:02;7.40;;;2.80;;
59659;SDS011;45534;52.690;6.268;2023-07-31T04:06:27;2.40;;;2.10;;
59659;SDS011;45534;52.690;6.268;2023-07-31T04:08:53;6.05;;;3.75;;
59659;SDS011;45534;52.690;6.268;2023-07-31T04:11:19;4.85;;;2.83;;
59659;SDS011;45534;52.690;6.268;2023-07-31T04:13:44;5.45;;;3.90;;
59659;SDS011;45534;52.690;6.268;2023-07-31T04:16:10;5.68;;;2.85;;
59659;SDS011;45534;52.690;6.268;2023-07-31T04:18:36;6.38;;;4.90;;
59659;SDS011;45534;52.690;6.268;2023-07-31T04:21:02;7.38;;;2.95;;
59659;SDS011;45534;52.690;6.268;2023-07-31T04:23:28;17.60;;;6.50;;
59659;SDS011;45534;52.690;6.268;2023-07-31T04:25:54;5.90;;;3.17;;
59659;SDS011;45534;52.690;6.268;2023-07-31T04:28:20;13.70;;;5.35;;
59659;SDS011;45534;52.690;6.268;2023-07-31T04:30:45;10.48;;;4.00;;
59659;SDS011;45534;52.690;6.268;2023-07-31T04:33:11;14.60;;;7.40;;
59659;SDS011;45534;52.690;6.268;2023-07-31T04:35:37;7.20;;;4.88;;
59659;SDS011;45534;52.690;6.268;2023-07-31T04:38:02;17.38;;;6.38;;
59659;SDS011;45534;52.690;6.268;2023-07-31T04:40:28;12.43;;;4.32;;
59659;SDS011;45534;52.690;6.268;2023-07-31T04:42:54;10.10;;;5.15;;
59659;SDS011;45534;52.690;6.268;2023-07-31T04:45:19;8.02;;;3.88;;
59659;SDS011;45534;52.690;6.268;2023-07-31T04:47:45;16.77;;;7.65;;
59659;SDS011;45534;52.690;6.268;2023-07-31T04:50:11;14.48;;;5.22;;
59659;SDS011;45534;52.690;6.268;2023-07-31T04:52:36;5.85;;;4.43;;
59659;SDS011;45534;52.690;6.268;2023-07-31T04:55:02;20.88;;;5.75;;
59659;SDS011;45534;52.690;6.268;2023-07-31T04:57:28;11.45;;;4.60;;
59659;SDS011;45534;52.690;6.268;2023-07-31T04:59:54;9.50;;;5.35;;
59659;SDS011;45534;52.690;6.268;2023-07-31T05:02:19;8.80;;;5.18;;
59659;SDS011;45534;52.690;6.268;2023-07-31T05:04:45;19.80;;;6.32;;
59659;SDS011;45534;52.690;6.268;2023-07-31T05:07:11;15.15;;;8.35;;
59659;SDS011;45534;52.690;6.268;2023-07-31T05:09:36;8.98;;;5.10;;
59659;SDS011;45534;52.690;6.268;2023-07-31T05:12:04;13.30;;;11.15;;
59659;SDS011;45534;52.690;6.268;2023-07-31T05:14:31;16.02;;;5.32;;
59659;SDS011;45534;52.690;6.268;2023-07-31T05:16:56;20.85;;;8.07;;
59659;SDS011;45534;52.690;6.268;2023-07-31T05:19:22;14.60;;;5.93;;
59659;SDS011;45534;52.690;6.268;2023-07-31T05:21:48;14.52;;;4.22;;
59659;SDS011;45534;52.690;6.268;2023-07-31T05:24:13;25.83;;;6.25;;
59659;SDS011;45534;52.690;6.268;2023-07-31T05:26:39;14.98;;;4.78;;
59659;SDS011;45534;52.690;6.268;2023-07-31T05:29:04;13.48;;;5.22;;
59659;SDS011;45534;52.690;6.268;2023-07-31T05:31:30;6.45;;;4.97;;
59659;SDS011;45534;52.690;6.268;2023-07-31T05:33:57;26.42;;;9.23;;
59659;SDS011;45534;52.690;6.268;2023-07-31T05:36:23;17.27;;;5.30;;
59659;SDS011;45534;52.690;6.268;2023-07-31T05:38:49;18.83;;;6.45;;
59659;SDS011;45534;52.690;6.268;2023-07-31T05:41:14;20.13;;;8.05;;
59659;SDS011;45534;52.690;6.268;2023-07-31T05:43:41;16.10;;;7.47;;
59659;SDS011;45534;52.690;6.268;2023-07-31T05:46:08;10.38;;;4.40;;
59659;SDS011;45534;52.690;6.268;2023-07-31T05:48:34;9.77;;;7.40;;
59659;SDS011;45534;52.690;6.268;2023-07-31T05:51:00;14.65;;;7.00;;
59659;SDS011;45534;52.690;6.268;2023-07-31T05:53:26;10.98;;;5.95;;
59659;SDS011;45534;52.690;6.268;2023-07-31T05:55:51;14.77;;;4.32;;
59659;SDS011;45534;52.690;6.268;2023-07-31T05:58:17;22.48;;;9.68;;
59659;SDS011;45534;52.690;6.268;2023-07-31T06:00:43;7.82;;;5.20;;
59659;SDS011;45534;52.690;6.268;2023-07-31T06:03:08;7.13;;;3.25;;
59659;SDS011;45534;52.690;6.268;2023-07-31T06:05:34;16.73;;;7.15;;
59659;SDS011;45534;52.690;6.268;2023-07-31T06:08:00;15.80;;;5.13;;
59659;SDS011;45534;52.690;6.268;2023-07-31T06:10:26;10.40;;;6.43;;
59659;SDS011;45534;52.690;6.268;2023-07-31T06:12:52;18.73;;;8.93;;
59659;SDS011;45534;52.690;6.268;2023-07-31T06:15:19;19.55;;;10.32;;
59659;SDS011;45534;52.690;6.268;2023-07-31T06:17:45;6.00;;;3.38;;
59659;SDS011;45534;52.690;6.268;2023-07-31T06:20:10;11.70;;;5.22;;
59659;SDS011;45534;52.690;6.268;2023-07-31T06:22:36;9.70;;;5.50;;
59659;SDS011;45534;52.690;6.268;2023-07-31T06:25:02;17.17;;;8.35;;
59659;SDS011;45534;52.690;6.268;2023-07-31T06:27:28;7.38;;;5.60;;
59659;SDS011;45534;52.690;6.268;2023-07-31T06:29:53;10.02;;;4.50;;
59659;SDS011;45534;52.690;6.268;2023-07-31T06:32:19;15.18;;;5.93;;
59659;SDS011;45534;52.690;6.268;2023-07-31T06:34:45;7.00;;;4.47;;
59659;SDS011;45534;52.690;6.268;2023-07-31T06:37:10;7.47;;;4.90;;
59659;SDS011;45534;52.690;6.268;2023-07-31T06:39:36;8.95;;;4.32;;
59659;SDS011;45534;52.690;6.268;2023-07-31T06:42:02;11.27;;;4.88;;
59659;SDS011;45534;52.690;6.268;2023-07-31T06:44:29;11.18;;;5.28;;
59659;SDS011;45534;52.690;6.268;2023-07-31T06:46:54;6.50;;;2.75;;
59659;SDS011;45534;52.690;6.268;2023-07-31T06:49:20;7.07;;;4.00;;
59659;SDS011;45534;52.690;6.268;2023-07-31T06:51:46;7.35;;;3.60;;
59659;SDS011;45534;52.690;6.268;2023-07-31T06:54:11;8.57;;;3.53;;
59659;SDS011;45534;52.690;6.268;2023-07-31T06:56:37;5.28;;;4.43;;
59659;SDS011;45534;52.690;6.268;2023-07-31T06:59:03;11.48;;;5.10;;
59659;SDS011;45534;52.690;6.268;2023-07-31T07:01:28;8.43;;;4.82;;
59659;SDS011;45534;52.690;6.268;2023-07-31T07:03:54;11.43;;;4.13;;
59659;SDS011;45534;52.690;6.268;2023-07-31T07:06:21;4.22;;;2.97;;
59659;SDS011;45534;52.690;6.268;2023-07-31T07:08:47;6.82;;;2.92;;
59659;SDS011;45534;52.690;6.268;2023-07-31T07:11:13;4.75;;;3.25;;
59659;SDS011;45534;52.690;6.268;2023-07-31T07:13:39;4.45;;;2.42;;
59659;SDS011;45534;52.690;6.268;2023-07-31T07:16:04;12.38;;;5.45;;
59659;SDS011;45534;52.690;6.268;2023-07-31T07:18:30;3.70;;;1.83;;
59659;SDS011;45534;52.690;6.268;2023-07-31T07:20:56;2.63;;;2.40;;
59659;SDS011;45534;52.690;6.268;2023-07-31T07:23:23;4.07;;;1.98;;
59659;SDS011;45534;52.690;6.268;2023-07-31T07:25:49;3.17;;;2.08;;
59659;SDS011;45534;52.690;6.268;2023-07-31T07:28:16;7.97;;;2.83;;
59659;SDS011;45534;52.690;6.268;2023-07-31T07:30:42;9.75;;;3.65;;
59659;SDS011;45534;52.690;6.268;2023-07-31T07:33:07;3.88;;;2.50;;
59659;SDS011;45534;52.690;6.268;2023-07-31T07:35:33;4.35;;;2.72;;
59659;SDS011;45534;52.690;6.268;2023-07-31T07:38:00;2.60;;;2.40;;
59659;SDS011;45534;52.690;6.268;2023-07-31T07:40:26;4.07;;;2.05;;
59659;SDS011;45534;52.690;6.268;2023-07-31T07:42:52;2.45;;;2.17;;
59659;SDS011;45534;52.690;6.268;2023-07-31T07:45:18;1.80;;;1.70;;
59659;SDS011;45534;52.690;6.268;2023-07-31T07:47:43;2.83;;;2.38;;
59659;SDS011;45534;52.690;6.268;2023-07-31T07:50:09;5.05;;;2.60;;
59659;SDS011;45534;52.690;6.268;2023-07-31T07:52:35;5.32;;;3.50;;
59659;SDS011;45534;52.690;6.268;2023-07-31T07:55:01;3.95;;;3.58;;
59659;SDS011;45534;52.690;6.268;2023-07-31T07:57:26;2.78;;;2.58;;
59659;SDS011;45534;52.690;6.268;2023-07-31T07:59:52;6.72;;;3.22;;
59659;SDS011;45534;52.690;6.268;2023-07-31T08:02:18;2.78;;;2.33;;
59659;SDS011;45534;52.690;6.268;2023-07-31T08:04:44;3.70;;;2.67;;
59659;SDS011;45534;52.690;6.268;2023-07-31T08:07:12;7.88;;;3.00;;
59659;SDS011;45534;52.690;6.268;2023-07-31T08:09:38;10.80;;;3.10;;
59659;SDS011;45534;52.690;6.268;2023-07-31T08:12:05;3.65;;;2.15;;
59659;SDS011;45534;52.690;6.268;2023-07-31T08:14:31;4.10;;;2.55;;
59659;SDS011;45534;52.690;6.268;2023-07-31T08:16:57;2.22;;;2.03;;
59659;SDS011;45534;52.690;6.268;2023-07-31T08:19:22;2.38;;;2.17;;
59659;SDS011;45534;52.690;6.268;2023-07-31T08:21:48;3.28;;;2.47;;
59659;SDS011;45534;52.690;6.268;2023-07-31T08:24:14;5.00;;;2.85;;
59659;SDS011;45534;52.690;6.268;2023-07-31T08:26:39;4.82;;;2.85;;
59659;SDS011;45534;52.690;6.268;2023-07-31T08:29:05;3.35;;;2.22;;
59659;SDS011;45534;52.690;6.268;2023-07-31T08:31:31;2.67;;;2.25;;
59659;SDS011;45534;52.690;6.268;2023-07-31T08:33:57;3.05;;;2.03;;
59659;SDS011;45534;52.690;6.268;2023-07-31T08:36:22;5.20;;;1.92;;
59659;SDS011;45534;52.690;6.268;2023-07-31T08:38:51;1.88;;;1.73;;
59659;SDS011;45534;52.690;6.268;2023-07-31T08:41:16;1.83;;;1.73;;
59659;SDS011;45534;52.690;6.268;2023-07-31T08:43:49;3.13;;;1.95;;
59659;SDS011;45534;52.690;6.268;2023-07-31T08:46:16;2.05;;;1.95;;
59659;SDS011;45534;52.690;6.268;2023-07-31T08:48:42;2.25;;;1.90;;
59659;SDS011;45534;52.690;6.268;2023-07-31T08:51:09;4.10;;;2.20;;
59659;SDS011;45534;52.690;6.268;2023-07-31T08:53:35;1.98;;;1.77;;
59659;SDS011;45534;52.690;6.268;2023-07-31T08:56:03;3.70;;;2.45;;
59659;SDS011;45534;52.690;6.268;2023-07-31T08:58:31;2.35;;;2.03;;
59659;SDS011;45534;52.690;6.268;2023-07-31T09:00:58;3.22;;;2.63;;
59659;SDS011;45534;52.690;6.268;2023-07-31T09:03:26;2.20;;;2.00;;
59659;SDS011;45534;52.690;6.268;2023-07-31T09:05:52;2.17;;;2.08;;
59659;SDS011;45534;52.690;6.268;2023-07-31T09:08:20;1.85;;;1.75;;
59659;SDS011;45534;52.690;6.268;2023-07-31T09:10:47;2.35;;;2.15;;
59659;SDS011;45534;52.690;6.268;2023-07-31T09:13:16;1.80;;;1.65;;
59659;SDS011;45534;52.690;6.268;2023-07-31T09:15:43;1.73;;;1.60;;
59659;SDS011;45534;52.690;6.268;2023-07-31T09:18:10;2.47;;;2.28;;
59659;SDS011;45534;52.690;6.268;2023-07-31T09:20:36;1.52;;;1.42;;
59659;SDS011;45534;52.690;6.268;2023-07-31T09:23:20;2.95;;;2.15;;
59659;SDS011;45534;52.690;6.268;2023-07-31T09:25:46;2.15;;;1.95;;
59659;SDS011;45534;52.690;6.268;2023-07-31T09:28:12;1.80;;;1.70;;
59659;SDS011;45534;52.690;6.268;2023-07-31T09:30:48;1.85;;;1.75;;
59659;SDS011;45534;52.690;6.268;2023-07-31T09:33:16;1.77;;;1.67;;
59659;SDS011;45534;52.690;6.268;2023-07-31T09:35:42;2.75;;;1.65;;
59659;SDS011;45534;52.690;6.268;2023-07-31T09:38:09;2.67;;;2.47;;
59659;SDS011;45534;52.690;6.268;2023-07-31T09:43:10;3.60;;;1.63;;
59659;SDS011;45534;52.690;6.268;2023-07-31T09:45:38;1.88;;;1.77;;
59659;SDS011;45534;52.690;6.268;2023-07-31T09:48:13;2.00;;;1.90;;
59659;SDS011;45534;52.690;6.268;2023-07-31T09:50:43;2.03;;;1.92;;
59659;SDS011;45534;52.690;6.268;2023-07-31T09:53:10;2.50;;;2.30;;
59659;SDS011;45534;52.690;6.268;2023-07-31T09:55:37;2.63;;;2.17;;
59659;SDS011;45534;52.690;6.268;2023-07-31T09:58:05;2.13;;;2.03;;
59659;SDS011;45534;52.690;6.268;2023-07-31T10:00:32;3.40;;;1.88;;
59659;SDS011;45534;52.690;6.268;2023-07-31T10:02:58;3.33;;;2.45;;
59659;SDS011;45534;52.690;6.268;2023-07-31T10:05:28;2.22;;;2.05;;
59659;SDS011;45534;52.690;6.268;2023-07-31T10:07:58;2.58;;;2.38;;
59659;SDS011;45534;52.690;6.268;2023-07-31T10:10:24;4.95;;;3.05;;
59659;SDS011;45534;52.690;6.268;2023-07-31T10:12:51;2.05;;;1.63;;
59659;SDS011;45534;52.690;6.268;2023-07-31T10:15:18;1.58;;;1.48;;
59659;SDS011;45534;52.690;6.268;2023-07-31T10:17:46;1.65;;;1.55;;
59659;SDS011;45534;52.690;6.268;2023-07-31T10:20:13;1.95;;;1.80;;
59659;SDS011;45534;52.690;6.268;2023-07-31T10:22:41;1.85;;;1.75;;
59659;SDS011;45534;52.690;6.268;2023-07-31T10:25:08;2.88;;;2.42;;
59659;SDS011;45534;52.690;6.268;2023-07-31T10:27:41;2.35;;;2.15;;
59659;SDS011;45534;52.690;6.268;2023-07-31T10:30:16;2.47;;;2.22;;
59659;SDS011;45534;52.690;6.268;2023-07-31T10:32:44;1.85;;;1.75;;
59659;SDS011;45534;52.690;6.268;2023-07-31T10:35:10;4.05;;;2.28;;
59659;SDS011;45534;52.690;6.268;2023-07-31T10:37:40;1.80;;;1.70;;
59659;SDS011;45534;52.690;6.268;2023-07-31T10:40:11;1.80;;;1.70;;
59659;SDS011;45534;52.690;6.268;2023-07-31T10:48:02;1.90;;;1.80;;
59659;SDS011;45534;52.690;6.268;2023-07-31T10:50:29;1.77;;;1.58;;
59659;SDS011;45534;52.690;6.268;2023-07-31T10:52:58;1.55;;;1.45;;
59659;SDS011;45534;52.690;6.268;2023-07-31T10:55:27;1.65;;;1.55;;
59659;SDS011;45534;52.690;6.268;2023-07-31T10:57:58;1.20;;;1.20;;
59659;SDS011;45534;52.690;6.268;2023-07-31T11:00:37;1.40;;;1.38;;
59659;SDS011;45534;52.690;6.268;2023-07-31T11:03:05;1.52;;;1.45;;
59659;SDS011;45534;52.690;6.268;2023-07-31T11:05:46;1.38;;;1.30;;
59659;SDS011;45534;52.690;6.268;2023-07-31T11:08:17;1.23;;;1.23;;
59659;SDS011;45534;52.690;6.268;2023-07-31T11:10:43;1.60;;;1.50;;
59659;SDS011;45534;52.690;6.268;2023-07-31T11:13:10;1.20;;;1.20;;
59659;SDS011;45534;52.690;6.268;2023-07-31T11:15:36;1.50;;;1.20;;
59659;SDS011;45534;52.690;6.268;2023-07-31T11:18:02;3.00;;;1.50;;
59659;SDS011;45534;52.690;6.268;2023-07-31T11:20:30;1.52;;;1.42;;
59659;SDS011;45534;52.690;6.268;2023-07-31T11:23:03;1.42;;;1.40;;
59659;SDS011;45534;52.690;6.268;2023-07-31T11:25:32;1.25;;;1.25;;
59659;SDS011;45534;52.690;6.268;2023-07-31T11:30:31;1.42;;;1.33;;
59659;SDS011;45534;52.690;6.268;2023-07-31T11:32:57;1.25;;;1.25;;
59659;SDS011;45534;52.690;6.268;2023-07-31T11:35:22;1.50;;;1.40;;
59659;SDS011;45534;52.690;6.268;2023-07-31T11:37:48;1.15;;;1.15;;
59659;SDS011;45534;52.690;6.268;2023-07-31T11:40:14;3.03;;;1.38;;
59659;SDS011;45534;52.690;6.268;2023-07-31T11:42:40;8.55;;;2.78;;
59659;SDS011;45534;52.690;6.268;2023-07-31T11:45:06;1.85;;;1.65;;
59659;SDS011;45534;52.690;6.268;2023-07-31T11:47:33;5.20;;;1.65;;
59659;SDS011;45534;52.690;6.268;2023-07-31T11:50:00;3.15;;;2.42;;
59659;SDS011;45534;52.690;6.268;2023-07-31T11:52:27;5.63;;;2.25;;
59659;SDS011;45534;52.690;6.268;2023-07-31T11:54:57;2.95;;;2.47;;
59659;SDS011;45534;52.690;6.268;2023-07-31T11:57:24;10.38;;;2.38;;
59659;SDS011;45534;52.690;6.268;2023-07-31T11:59:50;2.75;;;1.75;;
59659;SDS011;45534;52.690;6.268;2023-07-31T12:02:17;2.70;;;1.70;;
59659;SDS011;45534;52.690;6.268;2023-07-31T12:04:43;6.72;;;3.10;;
59659;SDS011;45534;52.690;6.268;2023-07-31T12:07:10;3.45;;;3.10;;
59659;SDS011;45534;52.690;6.268;2023-07-31T12:09:37;1.83;;;1.73;;
59659;SDS011;45534;52.690;6.268;2023-07-31T12:12:07;7.43;;;2.03;;
59659;SDS011;45534;52.690;6.268;2023-07-31T12:14:34;4.97;;;2.33;;
59659;SDS011;45534;52.690;6.268;2023-07-31T12:17:01;3.92;;;2.28;;
59659;SDS011;45534;52.690;6.268;2023-07-31T12:19:30;2.83;;;2.10;;
59659;SDS011;45534;52.690;6.268;2023-07-31T12:21:56;2.90;;;1.92;;
59659;SDS011;45534;52.690;6.268;2023-07-31T12:24:25;5.10;;;2.38;;
59659;SDS011;45534;52.690;6.268;2023-07-31T12:26:51;3.92;;;2.85;;
59659;SDS011;45534;52.690;6.268;2023-07-31T12:29:17;4.22;;;2.38;;
59659;SDS011;45534;52.690;6.268;2023-07-31T12:31:43;5.50;;;2.35;;
59659;SDS011;45534;52.690;6.268;2023-07-31T12:34:15;6.22;;;2.63;;
59659;SDS011;45534;52.690;6.268;2023-07-31T12:36:43;4.22;;;2.30;;
59659;SDS011;45534;52.690;6.268;2023-07-31T12:39:09;4.28;;;3.50;;
59659;SDS011;45534;52.690;6.268;2023-07-31T12:41:35;2.20;;;2.00;;
59659;SDS011;45534;52.690;6.268;2023-07-31T12:44:01;6.97;;;3.03;;
59659;SDS011;45534;52.690;6.268;2023-07-31T12:46:28;3.35;;;2.80;;
59659;SDS011;45534;52.690;6.268;2023-07-31T12:48:53;3.10;;;2.28;;
59659;SDS011;45534;52.690;6.268;2023-07-31T12:51:19;8.65;;;3.65;;
59659;SDS011;45534;52.690;6.268;2023-07-31T12:53:46;3.17;;;2.50;;
59659;SDS011;45534;52.690;6.268;2023-07-31T12:56:11;3.53;;;2.58;;
59659;SDS011;45534;52.690;6.268;2023-07-31T12:58:37;3.28;;;2.03;;
59659;SDS011;45534;52.690;6.268;2023-07-31T13:01:03;3.78;;;2.10;;
59659;SDS011;45534;52.690;6.268;2023-07-31T13:03:28;3.58;;;2.22;;
59659;SDS011;45534;52.690;6.268;2023-07-31T13:05:54;5.18;;;3.50;;
59659;SDS011;45534;52.690;6.268;2023-07-31T13:08:20;8.18;;;2.80;;
59659;SDS011;45534;52.690;6.268;2023-07-31T13:10:46;4.07;;;3.17;;
59659;SDS011;45534;52.690;6.268;2023-07-31T13:13:11;6.22;;;3.60;;
59659;SDS011;45534;52.690;6.268;2023-07-31T13:15:37;4.68;;;1.98;;
59659;SDS011;45534;52.690;6.268;2023-07-31T13:18:03;6.97;;;2.65;;
59659;SDS011;45534;52.690;6.268;2023-07-31T13:20:29;4.72;;;2.22;;
59659;SDS011;45534;52.690;6.268;2023-07-31T13:22:55;6.47;;;4.70;;
59659;SDS011;45534;52.690;6.268;2023-07-31T13:25:20;6.20;;;2.13;;
59659;SDS011;45534;52.690;6.268;2023-07-31T13:27:46;10.27;;;3.58;;
59659;SDS011;45534;52.690;6.268;2023-07-31T13:30:12;9.43;;;4.55;;
59659;SDS011;45534;52.690;6.268;2023-07-31T13:32:37;5.47;;;3.13;;
59659;SDS011;45534;52.690;6.268;2023-07-31T13:35:06;2.95;;;2.42;;
59659;SDS011;45534;52.690;6.268;2023-07-31T13:37:33;3.35;;;2.80;;
59659;SDS011;45534;52.690;6.268;2023-07-31T13:39:59;4.10;;;2.58;;
59659;SDS011;45534;52.690;6.268;2023-07-31T13:42:25;4.55;;;3.13;;
59659;SDS011;45534;52.690;6.268;2023-07-31T13:44:51;5.55;;;2.70;;
59659;SDS011;45534;52.690;6.268;2023-07-31T13:47:17;6.70;;;2.72;;
59659;SDS011;45534;52.690;6.268;2023-07-31T13:49:43;11.15;;;5.43;;
59659;SDS011;45534;52.690;6.268;2023-07-31T13:52:08;4.88;;;2.72;;
59659;SDS011;45534;52.690;6.268;2023-07-31T13:54:34;2.75;;;2.55;;
59659;SDS011;45534;52.690;6.268;2023-07-31T13:57:00;3.20;;;2.03;;
59659;SDS011;45534;52.690;6.268;2023-07-31T13:59:26;4.13;;;3.10;;
59659;SDS011;45534;52.690;6.268;2023-07-31T14:01:51;6.18;;;3.30;;
59659;SDS011;45534;52.690;6.268;2023-07-31T14:04:17;4.13;;;2.55;;
59659;SDS011;45534;52.690;6.268;2023-07-31T14:06:43;4.30;;;2.03;;
59659;SDS011;45534;52.690;6.268;2023-07-31T14:09:09;6.05;;;2.50;;
59659;SDS011;45534;52.690;6.268;2023-07-31T14:11:34;6.03;;;2.47;;
59659;SDS011;45534;52.690;6.268;2023-07-31T14:14:00;6.45;;;2.70;;
59659;SDS011;45534;52.690;6.268;2023-07-31T14:16:27;7.30;;;4.32;;
59659;SDS011;45534;52.690;6.268;2023-07-31T14:18:53;2.90;;;2.08;;
59659;SDS011;45534;52.690;6.268;2023-07-31T14:21:19;4.22;;;3.15;;
59659;SDS011;45534;52.690;6.268;2023-07-31T14:23:45;5.88;;;2.33;;
59659;SDS011;45534;52.690;6.268;2023-07-31T14:26:11;4.97;;;2.38;;
59659;SDS011;45534;52.690;6.268;2023-07-31T14:28:37;4.85;;;3.15;;
59659;SDS011;45534;52.690;6.268;2023-07-31T14:31:03;3.80;;;2.50;;
59659;SDS011;45534;52.690;6.268;2023-07-31T14:33:29;8.35;;;3.17;;
59659;SDS011;45534;52.690;6.268;2023-07-31T14:35:54;13.82;;;3.65;;
59659;SDS011;45534;52.690;6.268;2023-07-31T14:38:20;8.05;;;4.82;;
59659;SDS011;45534;52.690;6.268;2023-07-31T14:40:46;3.88;;;3.17;;
59659;SDS011;45534;52.690;6.268;2023-07-31T14:43:11;9.25;;;2.90;;
59659;SDS011;45534;52.690;6.268;2023-07-31T14:45:37;3.60;;;3.30;;
59659;SDS011;45534;52.690;6.268;2023-07-31T14:48:03;7.70;;;5.07;;
59659;SDS011;45534;52.690;6.268;2023-07-31T14:50:29;12.43;;;4.07;;
59659;SDS011;45534;52.690;6.268;2023-07-31T14:52:54;3.55;;;3.08;;
59659;SDS011;45534;52.690;6.268;2023-07-31T14:55:20;2.60;;;2.20;;